createdAt,value
2023-07-27T00:00:28.230Z,21.58
2023-07-27T00:02:56.272Z,21.54
2023-07-27T00:05:25.715Z,21.57
2023-07-27T00:07:53.666Z,21.59
2023-07-27T00:10:21.850Z,21.62
2023-07-27T00:12:49.844Z,21.62
2023-07-27T00:15:17.864Z,21.63
2023-07-27T00:17:45.946Z,21.64
2023-07-27T00:20:14.199Z,21.66
2023-07-27T00:22:43.551Z,21.67
2023-07-27T00:25:11.486Z,21.67
2023-07-27T00:27:39.545Z,21.68
2023-07-27T00:30:08.881Z,21.68
2023-07-27T00:32:36.930Z,21.67
2023-07-27T00:35:05.604Z,21.67
2023-07-27T00:37:33.555Z,21.68
2023-07-27T00:40:03.333Z,21.68
2023-07-27T00:42:31.339Z,21.68
2023-07-27T00:44:59.309Z,21.67
2023-07-27T00:47:27.323Z,21.70
2023-07-27T00:49:55.294Z,21.69
2023-07-27T00:52:23.578Z,21.71
2023-07-27T00:54:51.525Z,21.71
2023-07-27T00:57:21.683Z,21.70
2023-07-27T00:59:49.604Z,21.74
2023-07-27T01:02:17.589Z,21.74
2023-07-27T01:04:45.574Z,21.74
2023-07-27T01:07:13.556Z,21.65
2023-07-27T01:09:41.528Z,21.76
2023-07-27T01:12:11.981Z,21.71
2023-07-27T01:14:43.182Z,21.76
2023-07-27T01:17:13.586Z,21.77
2023-07-27T01:20:22.397Z,21.70
2023-07-27T01:23:16.722Z,21.76
2023-07-27T01:25:58.834Z,21.70
2023-07-27T01:28:35.292Z,21.77
2023-07-27T01:31:05.205Z,21.77
2023-07-27T01:33:34.390Z,21.80
2023-07-27T01:36:06.006Z,21.79
2023-07-27T01:38:33.995Z,21.80
2023-07-27T01:41:02.007Z,21.80
2023-07-27T01:43:30.055Z,21.81
2023-07-27T01:45:58.163Z,21.82
2023-07-27T01:48:28.148Z,21.83
2023-07-27T01:50:56.588Z,21.83
2023-07-27T01:53:24.727Z,21.81
2023-07-27T01:55:52.701Z,21.83
2023-07-27T01:58:20.702Z,21.85
2023-07-27T02:00:48.963Z,21.85
2023-07-27T02:03:16.915Z,21.85
2023-07-27T02:05:46.283Z,21.87
2023-07-27T02:08:14.254Z,21.87
2023-07-27T02:10:42.346Z,21.89
2023-07-27T02:13:12.904Z,21.86
2023-07-27T02:15:44.058Z,21.91
2023-07-27T02:18:16.977Z,21.91
2023-07-27T02:20:46.372Z,21.81
2023-07-27T02:23:14.319Z,21.92
2023-07-27T02:25:42.271Z,21.94
2023-07-27T02:28:11.893Z,21.96
2023-07-27T02:30:40.095Z,21.94
2023-07-27T02:33:08.030Z,21.95
2023-07-27T02:35:36.042Z,21.94
2023-07-27T02:38:05.421Z,21.94
2023-07-27T02:40:33.375Z,21.94
2023-07-27T02:43:01.345Z,21.95
2023-07-27T02:45:29.519Z,21.91
2023-07-27T02:47:57.489Z,21.93
2023-07-27T02:50:25.571Z,21.93
2023-07-27T02:52:53.630Z,21.92
2023-07-27T02:55:23.000Z,21.91
2023-07-27T02:57:51.067Z,21.91
2023-07-27T03:00:19.170Z,21.91
2023-07-27T03:02:47.242Z,21.92
2023-07-27T03:05:15.406Z,21.92
2023-07-27T03:07:43.387Z,21.92
2023-07-27T03:10:11.704Z,21.90
2023-07-27T03:12:41.033Z,21.93
2023-07-27T03:15:09.661Z,21.96
2023-07-27T03:17:37.826Z,21.94
2023-07-27T03:20:06.874Z,21.94
2023-07-27T03:22:34.897Z,21.94
2023-07-27T03:25:02.864Z,21.86
2023-07-27T03:27:30.818Z,21.96
2023-07-27T03:30:00.157Z,21.98
2023-07-27T03:32:28.265Z,21.96
2023-07-27T03:34:56.303Z,21.97
2023-07-27T03:37:24.240Z,21.97
2023-07-27T03:39:52.210Z,21.97
2023-07-27T03:42:20.162Z,21.97
2023-07-27T03:44:48.119Z,21.97
2023-07-27T03:47:17.639Z,22.00
2023-07-27T03:49:45.643Z,22.00
2023-07-27T03:52:13.602Z,21.99
2023-07-27T03:54:41.534Z,22.00
2023-07-27T03:57:09.538Z,21.92
2023-07-27T03:59:37.496Z,22.00
2023-07-27T04:02:05.788Z,22.01
2023-07-27T04:04:35.129Z,22.02
2023-07-27T04:07:03.115Z,22.03
2023-07-27T04:09:31.032Z,22.02
2023-07-27T04:11:59.035Z,22.02
2023-07-27T04:14:27.069Z,22.03
2023-07-27T04:16:55.067Z,22.00
2023-07-27T04:19:23.115Z,22.02
2023-07-27T04:21:52.490Z,22.03
2023-07-27T04:24:20.653Z,22.00
2023-07-27T04:26:48.571Z,22.00
2023-07-27T04:29:16.580Z,22.02
2023-07-27T04:31:44.517Z,22.02
2023-07-27T04:34:12.467Z,22.03
2023-07-27T04:36:40.386Z,22.05
2023-07-27T04:39:09.743Z,22.04
2023-07-27T04:41:37.756Z,22.03
2023-07-27T04:44:06.020Z,22.02
2023-07-27T04:46:34.341Z,22.02
2023-07-27T04:49:02.867Z,22.03
2023-07-27T04:51:30.849Z,22.04
2023-07-27T04:53:58.831Z,22.03
2023-07-27T04:56:28.171Z,22.02
2023-07-27T04:58:56.142Z,22.04
2023-07-27T05:01:24.140Z,22.04
2023-07-27T05:03:52.596Z,22.07
2023-07-27T05:06:20.638Z,22.07
2023-07-27T05:08:48.563Z,22.04
2023-07-27T05:11:16.560Z,22.08
2023-07-27T05:13:45.921Z,22.10
2023-07-27T05:16:13.920Z,22.08
2023-07-27T05:18:41.915Z,22.09
2023-07-27T05:21:11.111Z,22.10
2023-07-27T05:23:40.728Z,22.09
2023-07-27T05:26:08.716Z,22.10
2023-07-27T05:28:36.768Z,22.10
2023-07-27T05:31:06.084Z,22.10
2023-07-27T05:33:34.083Z,22.10
2023-07-27T05:36:02.146Z,22.12
2023-07-27T05:38:30.124Z,22.12
2023-07-27T05:41:01.198Z,22.14
2023-07-27T05:43:29.164Z,22.17
2023-07-27T05:45:57.427Z,22.17
2023-07-27T05:48:26.841Z,22.18
2023-07-27T05:50:54.952Z,22.18
2023-07-27T05:53:23.405Z,22.18
2023-07-27T05:55:51.439Z,22.19
2023-07-27T05:58:25.477Z,22.22
2023-07-27T06:01:01.934Z,22.22
2023-07-27T06:03:31.548Z,22.24
2023-07-27T06:05:59.742Z,22.24
2023-07-27T06:08:27.889Z,22.28
2023-07-27T06:11:02.812Z,22.28
2023-07-27T06:13:31.050Z,22.30
2023-07-27T06:15:59.225Z,22.28
2023-07-27T06:18:27.325Z,22.34
2023-07-27T06:20:56.837Z,22.34
2023-07-27T06:23:24.830Z,22.36
2023-07-27T06:25:52.940Z,22.37
2023-07-27T06:28:20.915Z,22.38
2023-07-27T06:30:49.792Z,22.31
2023-07-27T06:33:17.908Z,22.37
2023-07-27T06:35:45.931Z,22.34
2023-07-27T06:38:15.267Z,22.23
2023-07-27T06:40:43.263Z,22.25
2023-07-27T06:43:11.292Z,22.17
2023-07-27T06:45:39.278Z,22.11
2023-07-27T06:48:07.787Z,22.08
2023-07-27T06:50:35.787Z,22.07
2023-07-27T06:53:04.014Z,22.08
2023-07-27T06:55:33.878Z,22.10
2023-07-27T06:58:02.536Z,22.12
2023-07-27T07:00:30.532Z,22.14
2023-07-27T07:02:59.014Z,22.14
2023-07-27T07:05:27.061Z,22.15
2023-07-27T07:07:55.039Z,22.13
2023-07-27T07:10:23.040Z,22.15
2023-07-27T07:12:52.800Z,22.16
2023-07-27T07:15:20.804Z,22.18
2023-07-27T07:17:48.847Z,22.27
2023-07-27T07:20:16.982Z,22.38
2023-07-27T07:22:44.886Z,22.49
2023-07-27T07:25:12.815Z,22.58
2023-07-27T07:27:40.954Z,22.66
2023-07-27T07:30:11.281Z,22.73
2023-07-27T07:32:39.478Z,22.76
2023-07-27T07:35:09.639Z,22.73
2023-07-27T07:37:39.707Z,22.72
2023-07-27T07:40:09.235Z,22.70
2023-07-27T07:42:37.262Z,22.72
2023-07-27T07:45:05.968Z,22.68
2023-07-27T07:47:35.420Z,22.73
2023-07-27T07:50:03.749Z,22.76
2023-07-27T07:52:31.994Z,22.81
2023-07-27T07:54:59.954Z,22.86
2023-07-27T07:57:27.956Z,22.89
2023-07-27T07:59:56.011Z,22.94
2023-07-27T08:02:24.013Z,23.00
2023-07-27T08:04:53.700Z,23.07
2023-07-27T08:07:22.203Z,23.08
2023-07-27T08:09:50.175Z,23.04
2023-07-27T08:12:18.113Z,23.08
2023-07-27T08:14:46.131Z,22.97
2023-07-27T08:17:14.556Z,22.93
2023-07-27T08:19:42.566Z,22.76
2023-07-27T08:22:12.064Z,22.90
2023-07-27T08:24:40.062Z,22.88
2023-07-27T08:27:09.634Z,22.88
2023-07-27T08:29:37.658Z,22.87
2023-07-27T08:32:06.163Z,22.79
2023-07-27T08:34:34.332Z,22.75
2023-07-27T08:37:02.950Z,22.73
2023-07-27T08:39:32.275Z,22.72
2023-07-27T08:42:00.224Z,22.70
2023-07-27T08:44:28.554Z,22.67
2023-07-27T08:46:56.868Z,22.63
2023-07-27T08:49:25.316Z,22.63
2023-07-27T08:51:53.297Z,22.66
2023-07-27T08:54:21.931Z,22.72
2023-07-27T08:56:51.356Z,22.82
2023-07-27T08:59:19.263Z,22.92
2023-07-27T09:01:47.500Z,23.00
2023-07-27T09:04:16.259Z,22.92
2023-07-27T09:06:45.906Z,23.01
2023-07-27T09:09:16.164Z,23.02
2023-07-27T09:11:46.876Z,23.11
2023-07-27T09:14:18.043Z,23.21
2023-07-27T09:16:46.392Z,23.29
2023-07-27T09:19:15.118Z,23.36
2023-07-27T09:21:43.310Z,23.43
2023-07-27T09:24:12.307Z,23.37
2023-07-27T09:26:48.058Z,23.55
2023-07-27T09:29:17.726Z,23.57
2023-07-27T09:31:46.733Z,23.77
2023-07-27T09:34:14.686Z,23.87
2023-07-27T09:36:42.734Z,23.99
2023-07-27T09:39:11.096Z,23.98
2023-07-27T09:41:39.106Z,23.99
2023-07-27T09:44:07.064Z,23.97
2023-07-27T09:46:36.784Z,23.93
2023-07-27T09:49:05.080Z,23.88
2023-07-27T09:51:33.350Z,23.79
2023-07-27T09:54:01.293Z,23.81
2023-07-27T09:56:29.607Z,23.86
2023-07-27T09:58:57.642Z,23.90
2023-07-27T10:01:25.702Z,23.95
2023-07-27T10:03:59.613Z,24.03
2023-07-27T10:06:28.383Z,24.12
2023-07-27T10:08:56.641Z,24.24
2023-07-27T10:11:30.053Z,24.44
2023-07-27T10:13:58.437Z,24.57
2023-07-27T10:16:28.865Z,24.60
2023-07-27T10:18:58.328Z,24.55
2023-07-27T10:21:27.668Z,24.71
2023-07-27T10:23:57.274Z,24.78
2023-07-27T10:26:51.434Z,24.88
2023-07-27T10:29:20.859Z,24.91
2023-07-27T10:32:01.513Z,25.12
2023-07-27T10:34:36.968Z,25.23
2023-07-27T10:37:08.330Z,25.27
2023-07-27T10:39:36.874Z,25.24
2023-07-27T10:42:07.252Z,25.15
2023-07-27T10:44:42.574Z,25.04
2023-07-27T10:47:10.823Z,24.93
2023-07-27T10:49:43.665Z,24.85
2023-07-27T10:52:12.757Z,24.78
2023-07-27T10:54:41.730Z,24.71
2023-07-27T10:57:10.406Z,24.62
2023-07-27T10:59:39.645Z,24.47
2023-07-27T11:02:12.254Z,24.41
2023-07-27T11:04:40.863Z,24.26
2023-07-27T11:07:11.187Z,24.26
2023-07-27T11:09:39.279Z,24.33
2023-07-27T11:12:07.220Z,24.39
2023-07-27T11:14:35.400Z,24.43
2023-07-27T11:17:04.497Z,24.48
2023-07-27T11:19:32.573Z,24.62
2023-07-27T11:22:00.754Z,24.75
2023-07-27T11:24:30.208Z,24.94
2023-07-27T11:26:58.415Z,24.99
2023-07-27T11:29:26.340Z,25.19
2023-07-27T11:31:55.402Z,25.30
2023-07-27T11:34:24.473Z,25.35
2023-07-27T11:36:53.888Z,25.35
2023-07-27T11:39:22.424Z,25.30
2023-07-27T11:41:52.082Z,25.10
2023-07-27T11:44:21.125Z,25.08
2023-07-27T11:46:50.448Z,24.98
2023-07-27T11:49:18.489Z,24.83
2023-07-27T11:51:47.073Z,24.85
2023-07-27T11:54:23.301Z,24.93
2023-07-27T11:56:56.021Z,25.07
2023-07-27T11:59:24.056Z,25.30
2023-07-27T12:01:52.766Z,25.54
2023-07-27T12:04:21.171Z,25.76
2023-07-27T12:06:49.622Z,25.96
2023-07-27T12:09:17.623Z,26.13
2023-07-27T12:11:46.575Z,26.28
2023-07-27T12:14:15.973Z,26.45
2023-07-27T12:21:50.297Z,26.57
2023-07-27T12:34:25.646Z,26.87
2023-07-27T12:39:24.807Z,26.75
2023-07-27T12:44:25.590Z,26.64
2023-07-27T12:46:53.932Z,26.70
2023-07-27T12:49:21.919Z,26.84
2023-07-27T12:51:49.935Z,26.95
2023-07-27T12:54:17.873Z,27.13
2023-07-27T12:56:45.811Z,27.19
2023-07-27T12:59:13.820Z,27.32
2023-07-27T13:01:43.203Z,27.65
2023-07-27T13:04:11.592Z,27.88
2023-07-27T13:06:39.655Z,28.06
2023-07-27T13:09:09.015Z,28.17
2023-07-27T13:11:37.275Z,28.19
2023-07-27T13:14:05.509Z,28.19
2023-07-27T13:16:34.704Z,28.16
2023-07-27T13:19:05.430Z,28.12
2023-07-27T13:21:33.807Z,28.05
2023-07-27T13:24:02.132Z,27.97
2023-07-27T13:26:30.806Z,27.98
2023-07-27T13:28:58.877Z,27.98
2023-07-27T13:31:27.948Z,27.98
2023-07-27T13:33:55.994Z,27.97
2023-07-27T13:36:25.398Z,27.94
2023-07-27T13:38:53.823Z,27.93
2023-07-27T13:41:21.844Z,27.88
2023-07-27T13:43:50.848Z,28.04
2023-07-27T13:46:19.203Z,28.20
2023-07-27T13:48:47.308Z,28.29
2023-07-27T13:51:15.319Z,28.25
2023-07-27T13:53:44.674Z,28.24
2023-07-27T13:56:12.762Z,28.24
2023-07-27T13:58:40.772Z,28.25
2023-07-27T14:01:08.740Z,28.21
2023-07-27T14:03:37.254Z,28.36
2023-07-27T14:06:05.367Z,28.50
2023-07-27T14:08:33.396Z,28.63
2023-07-27T14:11:02.982Z,28.81
2023-07-27T14:13:31.702Z,28.94
2023-07-27T14:16:00.015Z,28.97
2023-07-27T14:18:28.054Z,29.01
2023-07-27T14:20:56.575Z,28.87
2023-07-27T14:23:25.396Z,28.79
2023-07-27T14:25:53.449Z,28.62
2023-07-27T14:28:22.897Z,28.52
2023-07-27T14:31:06.129Z,28.40
2023-07-27T14:33:39.349Z,28.30
2023-07-27T14:36:07.529Z,28.20
2023-07-27T14:38:35.964Z,28.05
2023-07-27T14:41:04.040Z,27.78
2023-07-27T14:43:33.435Z,27.50
2023-07-27T14:46:01.426Z,27.40
2023-07-27T14:51:01.079Z,27.41
2023-07-27T14:53:29.104Z,27.44
2023-07-27T14:55:57.334Z,27.50
2023-07-27T14:58:26.206Z,27.54
2023-07-27T15:06:09.182Z,27.52
2023-07-27T15:08:38.045Z,27.53
2023-07-27T15:13:37.678Z,27.65
2023-07-27T15:16:07.160Z,27.53
2023-07-27T15:18:36.257Z,27.33
2023-07-27T15:21:04.777Z,27.13
2023-07-27T15:23:33.003Z,27.05
2023-07-27T15:26:02.279Z,26.86
2023-07-27T15:28:30.344Z,26.87
2023-07-27T15:30:58.634Z,26.80
2023-07-27T15:33:28.141Z,26.64
2023-07-27T15:35:56.322Z,26.54
2023-07-27T15:38:24.276Z,26.45
2023-07-27T15:40:52.919Z,26.36
2023-07-27T15:43:21.070Z,26.31
2023-07-27T15:45:49.098Z,26.23
2023-07-27T15:48:18.157Z,26.25
2023-07-27T15:50:47.619Z,26.24
2023-07-27T15:53:15.668Z,26.12
2023-07-27T15:55:43.649Z,26.02
2023-07-27T15:58:12.301Z,26.00
2023-07-27T16:00:40.719Z,25.92
2023-07-27T16:03:08.937Z,25.84
2023-07-27T16:05:37.926Z,25.68
2023-07-27T16:08:07.933Z,25.71
2023-07-27T16:10:35.932Z,25.73
2023-07-27T16:13:03.874Z,25.66
2023-07-27T16:15:32.409Z,25.49
2023-07-27T16:18:00.461Z,25.39
2023-07-27T16:20:28.441Z,25.28
2023-07-27T16:22:56.410Z,25.15
2023-07-27T16:25:25.789Z,25.15
2023-07-27T16:27:54.620Z,25.07
2023-07-27T16:30:22.603Z,25.00
2023-07-27T16:32:51.221Z,24.92
2023-07-27T16:35:19.313Z,24.85
2023-07-27T16:37:48.744Z,24.80
2023-07-27T16:40:17.434Z,24.78
2023-07-27T16:42:47.093Z,24.74
2023-07-27T16:45:15.087Z,24.77
2023-07-27T16:47:43.108Z,24.73
2023-07-27T16:50:11.695Z,24.65
2023-07-27T16:52:39.644Z,24.60
2023-07-27T16:55:08.819Z,24.51
2023-07-27T16:57:36.811Z,24.43
2023-07-27T17:00:07.595Z,24.39
2023-07-27T17:02:37.318Z,24.35
2023-07-27T17:05:06.198Z,24.35
2023-07-27T17:07:34.350Z,24.29
2023-07-27T17:10:02.252Z,24.28
2023-07-27T17:12:30.230Z,24.30
2023-07-27T17:14:58.174Z,24.28
2023-07-27T17:17:27.617Z,24.24
2023-07-27T17:19:55.611Z,24.25
2023-07-27T17:22:24.187Z,24.25
2023-07-27T17:24:52.230Z,24.21
2023-07-27T17:27:20.214Z,24.19
2023-07-27T17:29:48.168Z,24.23
2023-07-27T17:32:16.209Z,24.27
2023-07-27T17:34:45.613Z,24.23
2023-07-27T17:37:13.622Z,24.14
2023-07-27T17:39:42.639Z,24.08
2023-07-27T17:42:10.623Z,24.00
2023-07-27T17:44:38.819Z,23.98
2023-07-27T17:47:07.310Z,23.96
2023-07-27T17:49:35.560Z,23.94
2023-07-27T17:52:05.375Z,23.94
2023-07-27T17:54:35.104Z,23.95
2023-07-27T17:57:03.044Z,23.93
2023-07-27T17:59:30.973Z,23.94
2023-07-27T18:01:59.074Z,23.92
2023-07-27T18:04:27.062Z,23.85
2023-07-27T18:06:54.992Z,23.78
2023-07-27T18:09:24.376Z,23.75
2023-07-27T18:11:52.315Z,23.70
2023-07-27T18:14:20.279Z,23.71
2023-07-27T18:16:48.256Z,23.65
2023-07-27T18:19:16.602Z,23.63
2023-07-27T18:21:45.214Z,23.57
2023-07-27T18:24:26.859Z,23.48
2023-07-27T18:26:57.968Z,23.39
2023-07-27T18:29:25.955Z,23.31
2023-07-27T18:31:53.982Z,23.27
2023-07-27T18:34:21.971Z,23.25
2023-07-27T18:36:50.573Z,23.23
2023-07-27T18:39:18.545Z,23.22
2023-07-27T18:41:46.638Z,23.19
2023-07-27T18:44:15.935Z,23.16
2023-07-27T18:46:43.929Z,23.18
2023-07-27T18:49:11.882Z,23.17
2023-07-27T18:51:39.835Z,23.15
2023-07-27T18:54:07.730Z,23.14
2023-07-27T18:56:35.879Z,23.11
2023-07-27T18:59:03.826Z,23.13
2023-07-27T19:01:33.379Z,23.15
2023-07-27T19:04:01.511Z,23.18
2023-07-27T19:06:29.534Z,23.14
2023-07-27T19:08:57.474Z,23.16
2023-07-27T19:11:25.513Z,23.09
2023-07-27T19:13:53.565Z,23.13
2023-07-27T19:16:25.992Z,23.13
2023-07-27T19:18:55.416Z,23.09
2023-07-27T19:21:23.356Z,23.07
2023-07-27T19:23:51.357Z,23.04
2023-07-27T19:26:20.437Z,22.98
2023-07-27T19:28:48.596Z,22.93
2023-07-27T19:31:20.737Z,22.87
2023-07-27T19:33:51.742Z,22.82
2023-07-27T19:36:21.227Z,22.79
2023-07-27T19:38:49.244Z,22.75
2023-07-27T19:41:17.895Z,22.68
2023-07-27T19:43:45.938Z,22.62
2023-07-27T19:46:13.960Z,22.59
2023-07-27T19:48:41.963Z,22.53
2023-07-27T19:51:10.017Z,22.49
2023-07-27T19:53:39.478Z,22.46
2023-07-27T19:56:07.919Z,22.44
2023-07-27T19:58:36.520Z,22.45
2023-07-27T20:01:04.633Z,22.29
2023-07-27T20:03:32.786Z,22.36
2023-07-27T20:06:00.762Z,22.26
2023-07-27T20:08:40.566Z,22.19
2023-07-27T20:11:16.217Z,22.17
2023-07-27T20:13:46.227Z,22.17
2023-07-27T20:16:14.836Z,22.11
2023-07-27T20:18:44.328Z,22.12
2023-07-27T20:21:13.096Z,22.14
2023-07-27T20:23:41.063Z,22.11
2023-07-27T20:26:09.103Z,22.13
2023-07-27T20:28:38.455Z,22.09
2023-07-27T20:31:07.713Z,22.09
2023-07-27T20:33:35.793Z,21.95
2023-07-27T20:36:03.805Z,22.11
2023-07-27T20:38:31.920Z,22.17
2023-07-27T20:41:04.165Z,22.16
2023-07-27T20:43:32.097Z,22.18
2023-07-27T20:46:02.315Z,22.15
2023-07-27T20:48:31.019Z,22.15
2023-07-27T20:50:59.816Z,22.17
2023-07-27T20:53:27.776Z,22.11
2023-07-27T20:55:57.022Z,22.10
2023-07-27T20:58:25.045Z,22.07
2023-07-27T21:01:01.521Z,22.04
2023-07-27T21:03:29.700Z,21.99
2023-07-27T21:05:57.661Z,21.99
2023-07-27T21:08:25.736Z,21.97
2023-07-27T21:10:54.119Z,21.97
2023-07-27T21:13:22.063Z,21.96
2023-07-27T21:16:01.673Z,21.91
2023-07-27T21:18:29.673Z,21.93
2023-07-27T21:20:57.638Z,21.79
2023-07-27T21:23:25.646Z,21.81
2023-07-27T21:25:58.685Z,21.80
2023-07-27T21:28:26.744Z,21.77
2023-07-27T21:30:57.563Z,21.77
2023-07-27T21:33:29.180Z,21.75
2023-07-27T21:35:57.780Z,21.77
2023-07-27T21:38:25.721Z,21.79
2023-07-27T21:40:54.197Z,21.76
2023-07-27T21:43:22.103Z,21.71
2023-07-27T21:45:50.184Z,21.67
2023-07-27T21:48:18.249Z,21.60
2023-07-27T21:50:49.061Z,21.53
2023-07-27T21:53:17.082Z,21.21
2023-07-27T21:55:45.056Z,21.46
2023-07-27T21:58:12.966Z,21.48
2023-07-27T22:00:40.930Z,21.46
2023-07-27T22:03:09.016Z,21.43
2023-07-27T22:05:37.020Z,21.46
2023-07-27T22:08:07.447Z,21.47
2023-07-27T22:10:35.409Z,21.48
2023-07-27T22:13:04.835Z,21.46
2023-07-27T22:15:32.819Z,21.43
2023-07-27T22:18:01.042Z,21.41
2023-07-27T22:20:29.040Z,21.42
2023-07-27T22:22:56.980Z,21.44
2023-07-27T22:25:26.399Z,21.46
2023-07-27T22:27:54.387Z,21.47
2023-07-27T22:30:22.503Z,21.51
2023-07-27T22:32:50.558Z,21.51
2023-07-27T22:35:18.498Z,21.54
2023-07-27T22:37:46.466Z,21.53
2023-07-27T22:40:14.448Z,21.53
2023-07-27T22:42:43.775Z,21.55
2023-07-27T22:45:12.089Z,21.59
2023-07-27T22:47:40.080Z,21.61
2023-07-27T22:50:08.645Z,21.63
2023-07-27T22:52:36.620Z,21.68
2023-07-27T22:55:04.632Z,21.70
2023-07-27T22:57:32.553Z,21.69
2023-07-27T23:00:01.834Z,21.69
2023-07-27T23:02:29.772Z,21.69
2023-07-27T23:04:57.740Z,21.69
2023-07-27T23:07:25.672Z,21.71
2023-07-27T23:09:53.621Z,21.70
2023-07-27T23:12:21.544Z,21.69
2023-07-27T23:14:49.475Z,21.67
2023-07-27T23:17:18.794Z,21.60
2023-07-27T23:19:46.952Z,21.57
2023-07-27T23:22:14.960Z,21.54
2023-07-27T23:24:43.454Z,21.50
2023-07-27T23:27:11.416Z,21.48
2023-07-27T23:29:39.473Z,21.48
2023-07-27T23:32:09.573Z,21.41
2023-07-27T23:34:38.975Z,21.38
2023-07-27T23:37:07.053Z,21.35
2023-07-27T23:39:35.420Z,21.28
2023-07-27T23:42:03.327Z,21.29
2023-07-27T23:44:31.253Z,21.26
2023-07-27T23:46:59.131Z,21.26
2023-07-27T23:49:27.088Z,21.26
2023-07-27T23:51:56.437Z,21.28
2023-07-27T23:54:24.357Z,21.28
2023-07-27T23:56:52.343Z,21.24
2023-07-27T23:59:20.290Z,21.22
